Time;durP1;ratioP1;P1;durP2;ratioP2;P2;SDS_P1;SDS_P2;PMS_P1;PMS_P2;Temp;Humidity;BMP_temperature;BMP_pressure;BME280_temperature;BME280_humidity;BME280_pressure;Samples;Min_cycle;Max_cycle;Signal;HPM_P1;HPM_P2
2022/12/13 00:01:27;;;;;;;34.07;25.87;;;;;;;-10.03;100.00;96522.94;5017456;28;20646;-72
2022/12/13 00:03:56;;;;;;;29.17;23.37;;;;;;;-10.10;100.00;96515.59;5027696;28;20488;-73
2022/12/13 00:06:25;;;;;;;38.23;24.67;;;;;;;-10.11;100.00;96519.06;5020316;28;20751;-70
2022/12/13 00:08:53;;;;;;;30.77;24.43;;;;;;;-10.11;100.00;96514.78;5035007;28;20982;-72
2022/12/13 00:11:21;;;;;;;31.90;25.33;;;;;;;-10.13;100.00;96520.88;4985194;28;21178;-71
2022/12/13 00:13:50;;;;;;;31.80;23.97;;;;;;;-10.15;100.00;96522.69;5036201;28;20458;-70
2022/12/13 00:16:21;;;;;;;28.27;23.27;;;;;;;-10.19;100.00;96517.69;5024173;28;21790;-70
2022/12/13 00:18:50;;;;;;;34.27;22.53;;;;;;;-10.22;100.00;96524.72;5033650;28;20451;-69
2022/12/13 00:21:19;;;;;;;24.30;21.43;;;;;;;-10.20;100.00;96518.59;5006473;28;20450;-69
2022/12/13 00:23:47;;;;;;;25.53;21.67;;;;;;;-10.16;100.00;96527.00;5031666;28;20481;-69
2022/12/13 00:26:16;;;;;;;23.13;20.57;;;;;;;-10.34;100.00;96514.13;5027994;28;20796;-70
2022/12/13 00:28:45;;;;;;;25.20;20.17;;;;;;;-10.26;100.00;96518.03;4986865;28;20445;-71
2022/12/13 00:31:14;;;;;;;25.97;21.23;;;;;;;-10.32;100.00;96521.75;5027777;28;20580;-70
2022/12/13 00:34:01;;;;;;;25.50;20.30;;;;;;;-10.34;100.00;96508.19;5015416;28;20945;-72
2022/12/13 00:36:29;;;;;;;27.00;19.70;;;;;;;-10.38;100.00;96511.78;5032053;28;20832;-70
2022/12/13 00:39:03;;;;;;;24.50;19.67;;;;;;;-10.26;100.00;96515.50;5036144;28;20441;-70
2022/12/13 00:41:32;;;;;;;23.97;19.10;;;;;;;-10.27;100.00;96516.38;5034985;28;20450;-70
2022/12/13 00:44:01;;;;;;;22.90;19.43;;;;;;;-10.28;100.00;96507.88;4982078;28;20668;-72
2022/12/13 00:46:30;;;;;;;23.27;18.23;;;;;;;-10.28;100.00;96509.59;5027793;28;20479;-71
2022/12/13 00:49:00;;;;;;;22.80;18.40;;;;;;;-10.26;100.00;96513.78;5033453;28;20454;-72
2022/12/13 00:51:29;;;;;;;20.50;15.93;;;;;;;-10.21;100.00;96514.38;5006228;28;20462;-72
2022/12/13 00:53:57;;;;;;;16.63;14.33;;;;;;;-10.21;100.00;96514.38;5034302;28;20569;-73
2022/12/13 00:56:27;;;;;;;15.47;13.87;;;;;;;-10.19;100.00;96509.19;5029658;28;20715;-71
2022/12/13 00:58:56;;;;;;;17.00;13.83;;;;;;;-10.18;100.00;96509.09;4978829;28;20881;-72
2022/12/13 01:01:25;;;;;;;17.50;14.90;;;;;;;-10.22;100.00;96506.78;5025220;28;20783;-70
2022/12/13 01:03:56;;;;;;;22.10;16.13;;;;;;;-10.35;100.00;96504.78;5036033;28;20675;-71
2022/12/13 01:06:28;;;;;;;20.13;17.27;;;;;;;-10.50;100.00;96503.78;5005431;28;21080;-72
2022/12/13 01:08:56;;;;;;;21.20;16.57;;;;;;;-10.50;100.00;96502.97;5030434;28;20788;-71
2022/12/13 01:11:24;;;;;;;20.70;17.20;;;;;;;-10.45;100.00;96501.03;5032617;28;20649;-72
2022/12/13 01:13:52;;;;;;;21.30;16.23;;;;;;;-10.42;100.00;96494.91;5020827;28;20452;-72
2022/12/13 01:16:20;;;;;;;17.00;14.73;;;;;;;-10.55;100.00;96490.38;4939624;28;20495;-70
2022/12/13 01:18:47;;;;;;;17.40;13.53;;;;;;;-10.60;100.00;96488.94;5006791;28;21155;-69
2022/12/13 01:21:18;;;;;;;21.60;15.37;;;;;;;-10.53;100.00;96496.25;5029375;28;20641;-70
2022/12/13 01:23:46;;;;;;;15.90;14.27;;;;;;;-10.58;100.00;96490.50;5003990;28;20478;-72
2022/12/13 01:26:16;;;;;;;18.70;15.03;;;;;;;-10.54;100.00;96497.16;5036983;28;20454;-72
2022/12/13 01:28:44;;;;;;;19.00;14.70;;;;;;;-10.54;100.00;96491.22;5030709;28;21218;-71
2022/12/13 01:31:13;;;;;;;17.20;15.40;;;;;;;-10.62;100.00;96483.88;4979315;28;20470;-73
2022/12/13 01:33:41;;;;;;;18.60;14.70;;;;;;;-10.58;100.00;96482.81;5036772;28;20468;-70
2022/12/13 01:36:12;;;;;;;23.40;15.00;;;;;;;-10.57;100.00;96481.94;5031734;28;20441;-71
2022/12/13 01:38:41;;;;;;;17.37;13.83;;;;;;;-10.47;100.00;96480.59;5013018;28;20552;-73
2022/12/13 01:41:10;;;;;;;21.80;15.10;;;;;;;-10.43;100.00;96483.00;5030934;28;20460;-72
2022/12/13 01:43:56;;;;;;;16.20;14.23;;;;;;;-10.43;100.00;96488.13;5030954;28;20482;-71
2022/12/13 01:46:24;;;;;;;18.93;14.23;;;;;;;-10.56;100.00;96477.66;5032121;28;20511;-70
2022/12/13 01:49:01;;;;;;;16.83;14.57;;;;;;;-10.51;100.00;96476.50;4987097;28;20703;-71
2022/12/13 01:51:34;;;;;;;13.97;12.30;;;;;;;-10.53;100.00;96475.75;5035113;28;20497;-72
2022/12/13 01:54:04;;;;;;;15.00;12.37;;;;;;;-10.49;100.00;96476.47;5013460;28;20562;-72
2022/12/13 01:56:36;;;;;;;13.50;12.10;;;;;;;-10.63;100.00;96469.41;5032127;28;20495;-71
2022/12/13 01:59:07;;;;;;;14.97;12.20;;;;;;;-10.60;100.00;96468.44;5027952;28;20445;-70
2022/12/13 02:01:34;;;;;;;17.37;11.90;;;;;;;-10.58;100.00;96469.22;5038262;28;20456;-70
2022/12/13 02:04:02;;;;;;;16.17;12.90;;;;;;;-10.60;100.00;96476.94;4983199;28;21021;-71
2022/12/13 02:06:34;;;;;;;15.67;13.10;;;;;;;-10.68;100.00;96468.78;5036680;28;20479;-71
2022/12/13 02:09:05;;;;;;;16.73;12.43;;;;;;;-10.75;100.00;96463.13;5006728;28;20948;-71
2022/12/13 02:11:34;;;;;;;14.20;11.53;;;;;;;-10.79;100.00;96462.44;5014819;28;21098;-71
2022/12/13 02:14:02;;;;;;;15.37;11.43;;;;;;;-10.70;100.00;96461.16;5007006;28;20488;-72
2022/12/13 02:16:40;;;;;;;14.23;12.00;;;;;;;-10.66;100.00;96467.81;5033064;28;20580;-70
2022/12/13 02:19:49;;;;;;;16.00;10.97;;;;;;;-10.65;100.00;96460.97;4981192;28;20821;-72
2022/12/13 02:22:33;;;;;;;18.97;13.97;;;;;;;-10.68;100.00;96463.69;5010140;28;20458;-72
2022/12/13 02:25:16;;;;;;;38.07;18.03;;;;;;;-10.78;100.00;96460.69;5034072;28;20760;-72
2022/12/13 02:27:55;;;;;;;38.83;19.70;;;;;;;-10.85;100.00;96457.59;5040124;28;20488;-71
2022/12/13 02:30:34;;;;;;;33.97;19.57;;;;;;;-10.84;100.00;96459.25;5031988;28;20788;-70
2022/12/13 02:33:11;;;;;;;21.57;14.97;;;;;;;-10.81;100.00;96456.53;5033963;28;20511;-73
2022/12/13 02:35:53;;;;;;;18.53;12.43;;;;;;;-10.76;100.00;96456.34;4986287;28;20464;-72
2022/12/13 02:38:26;;;;;;;18.50;14.67;;;;;;;-10.81;100.00;96455.72;5028908;28;20582;-70
2022/12/13 02:40:58;;;;;;;30.07;15.57;;;;;;;-10.71;100.00;96453.59;5045469;28;20441;-73
2022/12/13 02:43:32;;;;;;;28.67;17.70;;;;;;;-10.82;100.00;96449.75;5015563;28;20560;-72
2022/12/13 02:46:03;;;;;;;27.80;19.47;;;;;;;-10.83;100.00;96447.28;5037453;28;20540;-72
2022/12/13 02:48:34;;;;;;;23.23;17.20;;;;;;;-10.79;100.00;96447.09;5041744;28;20802;-73
2022/12/13 02:51:05;;;;;;;20.63;12.37;;;;;;;-10.74;100.00;96453.72;4978824;28;20589;-71
2022/12/13 02:53:33;;;;;;;16.73;13.60;;;;;;;-10.76;100.00;96448.66;5041454;28;20730;-71
2022/12/13 02:56:01;;;;;;;17.63;13.37;;;;;;;-10.83;100.00;96460.91;5029101;28;20565;-72
2022/12/13 02:58:33;;;;;;;19.13;15.30;;;;;;;-10.85;100.00;96447.34;5017969;28;20760;-70
2022/12/13 03:01:13;;;;;;;15.17;12.70;;;;;;;-10.91;100.00;96452.75;5042376;28;20577;-72
2022/12/13 03:04:02;;;;;;;15.20;10.77;;;;;;;-10.94;100.00;96452.88;5037306;28;20482;-72
2022/12/13 03:06:36;;;;;;;13.57;11.33;;;;;;;-10.92;100.00;96456.22;4998153;28;20584;-69
2022/12/13 03:09:23;;;;;;;13.33;10.77;;;;;;;-11.00;100.00;96448.06;5035507;28;20559;-72
2022/12/13 03:14:51;;;;;;;12.67;10.13;;;;;;;-11.01;100.00;96447.22;5039824;28;20664;-69
2022/12/13 03:17:21;;;;;;;12.40;10.20;;;;;;;-11.06;100.00;96451.69;5033750;28;21010;-70
2022/12/13 03:19:51;;;;;;;11.97;10.70;;;;;;;-11.02;100.00;96454.97;5033510;28;20574;-66
2022/12/13 03:22:19;;;;;;;15.10;10.83;;;;;;;-11.00;100.00;96448.06;4993558;28;21045;-71
2022/12/13 03:24:47;;;;;;;16.00;12.00;;;;;;;-11.02;100.00;96443.00;4973836;28;20501;-72
2022/12/13 03:27:15;;;;;;;13.50;10.57;;;;;;;-11.14;100.00;96444.41;5038598;28;20798;-72
2022/12/13 03:29:42;;;;;;;12.77;10.87;;;;;;;-11.17;100.00;96441.97;5034668;28;20446;-71
2022/12/13 03:32:10;;;;;;;10.70;9.70;;;;;;;-11.16;100.00;96447.91;5029952;28;20544;-69
2022/12/13 03:34:39;;;;;;;14.73;11.10;;;;;;;-11.20;100.00;96442.94;5033921;28;20442;-69
2022/12/13 03:37:11;;;;;;;13.43;10.87;;;;;;;-11.22;100.00;96452.41;5015996;28;20478;-70
2022/12/13 03:39:39;;;;;;;12.17;10.67;;;;;;;-11.21;100.00;96440.41;4975681;28;20449;-71
2022/12/13 03:42:07;;;;;;;13.27;10.10;;;;;;;-11.10;100.00;96437.38;5027559;28;20470;-71
2022/12/13 03:44:34;;;;;;;13.00;11.03;;;;;;;-11.14;100.00;96431.59;5024633;28;20961;-70
2022/12/13 03:47:02;;;;;;;12.77;11.20;;;;;;;-11.15;100.00;96435.06;5024550;28;20473;-70
2022/12/13 03:49:30;;;;;;;14.47;11.37;;;;;;;-11.32;100.00;96427.28;5026538;28;20454;-71
2022/12/13 03:52:03;;;;;;;14.40;12.33;;;;;;;-11.32;100.00;96430.69;5023556;28;20462;-71
2022/12/13 03:54:31;;;;;;;15.17;11.27;;;;;;;-11.32;100.00;96432.41;4975552;28;20957;-71
2022/12/13 03:56:59;;;;;;;13.60;11.10;;;;;;;-11.21;100.00;96425.91;5028954;28;20469;-68
2022/12/13 03:59:27;;;;;;;11.87;10.67;;;;;;;-11.21;100.00;96417.41;5025920;28;20560;-69
2022/12/13 04:01:55;;;;;;;12.23;9.83;;;;;;;-11.25;100.00;96414.16;5032147;28;20465;-73
2022/12/13 04:04:23;;;;;;;11.60;9.83;;;;;;;-11.23;100.00;96408.97;5025937;28;20888;-69
2022/12/13 04:06:50;;;;;;;11.43;9.70;;;;;;;-11.21;100.00;96410.56;5023596;28;20634;-69
2022/12/13 04:09:20;;;;;;;12.87;9.43;;;;;;;-11.35;100.00;96400.13;4966733;28;21288;-70
2022/12/13 04:14:34;;;;;;;10.53;9.43;;;;;;;-11.30;100.00;96405.03;5021182;28;20454;-70
2022/12/13 04:17:02;;;;;;;14.83;10.60;;;;;;;-11.35;100.00;96406.06;5028771;28;20511;-71
2022/12/13 04:19:29;;;;;;;10.33;9.33;;;;;;;-11.36;100.00;96412.06;5024174;28;20978;-71
2022/12/13 04:21:57;;;;;;;11.87;10.33;;;;;;;-11.41;100.00;96408.91;5020432;28;20564;-73
2022/12/13 04:24:26;;;;;;;11.63;10.07;;;;;;;-11.44;100.00;96419.28;5028181;28;20532;-69
2022/12/13 04:26:58;;;;;;;10.83;9.50;;;;;;;-11.39;100.00;96404.53;4976053;28;20490;-72
2022/12/13 04:29:27;;;;;;;13.07;10.47;;;;;;;-11.42;100.00;96402.13;5023266;28;20457;-71
2022/12/13 04:32:01;;;;;;;14.93;10.33;;;;;;;-11.56;100.00;96405.28;5022614;28;20980;-70
2022/12/13 04:34:29;;;;;;;13.00;9.23;;;;;;;-11.55;100.00;96394.16;5034923;28;20856;-71
2022/12/13 04:37:04;;;;;;;10.60;9.53;;;;;;;-11.48;100.00;96397.28;5024328;28;20548;-72
2022/12/13 04:39:33;;;;;;;12.43;9.27;;;;;;;-11.45;100.00;96386.94;5031790;28;20453;-67
2022/12/13 04:42:01;;;;;;;10.77;8.93;;;;;;;-11.45;100.00;96388.63;4970221;28;20474;-71
2022/12/13 04:44:29;;;;;;;10.97;9.53;;;;;;;-11.46;100.00;96392.09;5034938;28;20779;-69
2022/12/13 04:47:03;;;;;;;8.90;8.10;;;;;;;-11.48;100.00;96390.44;5030983;28;20492;-73
2022/12/13 04:49:31;;;;;;;11.53;10.10;;;;;;;-11.44;100.00;96391.13;5031275;28;20437;-71
2022/12/13 04:51:59;;;;;;;11.20;9.77;;;;;;;-11.40;100.00;96390.09;5023342;28;20469;-72
2022/12/13 04:54:28;;;;;;;10.77;9.53;;;;;;;-11.38;100.00;96395.13;5030183;28;20471;-71
2022/12/13 04:57:08;;;;;;;12.30;10.30;;;;;;;-11.35;100.00;96392.47;4979198;28;20498;-72
2022/12/13 04:59:37;;;;;;;12.93;9.40;;;;;;;-11.41;100.00;96401.22;5027706;28;20449;-71
2022/12/13 05:02:05;;;;;;;15.13;10.17;;;;;;;-11.50;100.00;96407.56;5032647;28;20465;-70
2022/12/13 05:04:33;;;;;;;12.33;10.13;;;;;;;-11.38;100.00;96395.97;5036997;28;20481;-70
2022/12/13 05:07:01;;;;;;;10.90;9.43;;;;;;;-11.47;100.00;96391.28;5031855;28;20478;-71
2022/12/13 05:09:29;;;;;;;14.20;10.93;;;;;;;-11.43;100.00;96395.34;5036123;28;20445;-68
2022/12/13 05:11:56;;;;;;;11.93;9.50;;;;;;;-11.39;100.00;96396.88;4989869;28;20449;-69
2022/12/13 05:14:30;;;;;;;11.30;10.17;;;;;;;-11.34;100.00;96397.50;5032387;28;20451;-71
2022/12/13 05:16:57;;;;;;;11.60;9.37;;;;;;;-11.37;100.00;96391.69;5036773;28;20468;-68
2022/12/13 05:19:26;;;;;;;13.23;10.63;;;;;;;-11.35;100.00;96405.25;5032476;28;20470;-71
2022/12/13 05:21:57;;;;;;;18.43;13.83;;;;;;;-11.64;100.00;96409.91;5006084;28;20461;-70
2022/12/13 05:24:28;;;;;;;18.90;15.00;;;;;;;-11.64;100.00;96415.03;5005662;28;20457;-70
2022/12/13 05:26:57;;;;;;;15.77;14.07;;;;;;;-11.64;100.00;96418.38;4986646;28;20939;-70
2022/12/13 05:29:26;;;;;;;13.80;11.20;;;;;;;-11.69;100.00;96411.84;5030770;28;20461;-70
2022/12/13 05:31:55;;;;;;;12.90;10.33;;;;;;;-11.63;100.00;96417.50;4983494;28;20461;-68
2022/12/13 05:34:23;;;;;;;13.43;11.37;;;;;;;-11.59;100.00;96404.56;5032213;28;20829;-68
2022/12/13 05:36:50;;;;;;;15.30;11.87;;;;;;;-11.65;100.00;96406.50;5033192;28;20467;-70
2022/12/13 05:39:18;;;;;;;13.10;10.20;;;;;;;-11.71;100.00;96411.88;5035822;28;20466;-68
2022/12/13 05:41:57;;;;;;;12.87;10.97;;;;;;;-11.75;100.00;96405.25;5039928;28;20445;-70
2022/12/13 05:44:29;;;;;;;16.97;10.83;;;;;;;-11.98;100.00;96398.56;5031220;28;20454;-72
2022/12/13 05:46:59;;;;;;;12.87;11.30;;;;;;;-11.95;100.00;96401.81;4981423;28;20489;-70
2022/12/13 05:49:29;;;;;;;12.93;11.70;;;;;;;-11.88;100.00;96402.38;5032700;28;20720;-70
2022/12/13 05:51:57;;;;;;;15.93;11.47;;;;;;;-11.85;100.00;96409.91;5031346;28;20456;-70
2022/12/13 05:54:24;;;;;;;14.00;12.57;;;;;;;-12.01;100.00;96403.84;5036132;28;20472;-70
2022/12/13 05:56:52;;;;;;;15.00;13.20;;;;;;;-12.05;100.00;96403.13;5038118;28;20461;-68
2022/12/13 05:59:19;;;;;;;14.40;12.57;;;;;;;-11.94;100.00;96390.69;5032167;28;20567;-69
2022/12/13 06:01:47;;;;;;;16.83;13.60;;;;;;;-11.97;100.00;96395.94;5036878;28;20445;-70
2022/12/13 06:04:16;;;;;;;27.87;17.90;;;;;;;-11.90;100.00;96386.28;4985192;28;20666;-72
2022/12/13 06:06:49;;;;;;;15.50;13.17;;;;;;;-11.84;100.00;96382.66;5033282;28;20485;-70
2022/12/13 06:09:18;;;;;;;14.83;12.87;;;;;;;-11.84;100.00;96382.66;5037932;28;20816;-70
2022/12/13 06:11:45;;;;;;;14.10;12.53;;;;;;;-11.82;100.00;96386.78;5032537;28;20459;-72
2022/12/13 06:14:14;;;;;;;13.80;11.77;;;;;;;-11.74;100.00;96386.47;5032151;28;20450;-69
2022/12/13 06:16:50;;;;;;;14.77;11.83;;;;;;;-11.73;100.00;96385.56;5037876;28;20469;-71
2022/12/13 06:19:19;;;;;;;15.00;11.80;;;;;;;-11.73;100.00;96377.91;4985094;28;20869;-69
2022/12/13 06:21:47;;;;;;;15.60;11.53;;;;;;;-11.73;100.00;96385.56;5035293;28;20454;-70
2022/12/13 06:24:16;;;;;;;11.97;10.63;;;;;;;-11.78;100.00;96390.06;5036426;28;20438;-67
2022/12/13 06:26:44;;;;;;;13.37;12.13;;;;;;;-11.86;100.00;96382.72;5034250;28;20482;-71
2022/12/13 06:29:13;;;;;;;14.50;12.40;;;;;;;-11.85;100.00;96376.69;5032011;28;20892;-70
2022/12/13 06:31:53;;;;;;;13.97;11.07;;;;;;;-11.87;100.00;96377.69;5033222;28;20962;-71
2022/12/13 06:34:32;;;;;;;14.83;12.40;;;;;;;-11.97;100.00;96383.16;5008256;28;20994;-71
2022/12/13 06:37:00;;;;;;;10.93;9.73;;;;;;;-11.98;100.00;96381.50;5033843;28;20551;-71
2022/12/13 06:39:28;;;;;;;11.57;10.47;;;;;;;-11.95;100.00;96393.31;5036806;28;21196;-70
2022/12/13 06:42:02;;;;;;;17.17;12.57;;;;;;;-11.97;100.00;96387.44;5034004;28;20445;-69
2022/12/13 06:44:29;;;;;;;14.87;11.53;;;;;;;-11.98;100.00;96385.78;5038786;28;20750;-70
2022/12/13 06:46:58;;;;;;;17.00;12.77;;;;;;;-11.91;100.00;96387.19;5018433;28;21036;-69
2022/12/13 06:49:39;;;;;;;12.37;10.27;;;;;;;-11.94;100.00;96390.69;5029973;28;20475;-73
2022/12/13 06:52:08;;;;;;;14.33;11.77;;;;;;;-11.99;100.00;96391.78;5031145;28;20464;-70
2022/12/13 06:54:36;;;;;;;13.47;12.07;;;;;;;-11.88;100.00;96388.78;5036228;28;20441;-71
2022/12/13 06:57:04;;;;;;;14.73;11.13;;;;;;;-12.00;100.00;96392.72;5031022;28;20476;-69
2022/12/13 06:59:31;;;;;;;19.23;13.70;;;;;;;-11.86;100.00;96392.94;5029773;28;20448;-70
2022/12/13 07:01:59;;;;;;;16.90;14.23;;;;;;;-11.83;100.00;96391.97;5035405;28;20945;-69
2022/12/13 07:04:30;;;;;;;16.43;11.43;;;;;;;-11.85;100.00;96391.22;4986639;28;21007;-71
2022/12/13 07:06:59;;;;;;;12.93;11.60;;;;;;;-11.85;100.00;96389.47;5030171;28;20503;-69
2022/12/13 07:09:29;;;;;;;12.10;10.80;;;;;;;-11.83;100.00;96387.69;5033582;28;20793;-70
2022/12/13 07:11:56;;;;;;;17.17;14.37;;;;;;;-11.78;100.00;96395.16;5034986;28;20444;-69
2022/12/13 07:14:24;;;;;;;19.77;14.83;;;;;;;-11.86;100.00;96395.47;5032317;28;21188;-67
2022/12/13 07:16:52;;;;;;;13.60;11.93;;;;;;;-11.77;100.00;96397.63;5034704;28;20478;-70
2022/12/13 07:19:29;;;;;;;12.30;11.00;;;;;;;-11.69;100.00;96399.88;4985783;28;21013;-72
2022/12/13 07:22:04;;;;;;;14.70;12.27;;;;;;;-11.60;100.00;96397.81;5029550;28;20461;-70
2022/12/13 07:24:32;;;;;;;17.47;12.47;;;;;;;-11.54;100.00;96400.94;5037981;28;20704;-71
2022/12/13 07:27:00;;;;;;;19.07;15.63;;;;;;;-11.50;100.00;96399.91;5036242;28;20477;-70
2022/12/13 07:29:27;;;;;;;16.33;12.73;;;;;;;-11.41;100.00;96398.69;5031826;28;21203;-70
2022/12/13 07:31:55;;;;;;;13.17;11.53;;;;;;;-11.48;100.00;96402.41;5034497;28;20442;-69
2022/12/13 07:34:28;;;;;;;15.90;13.37;;;;;;;-11.43;100.00;96394.50;5030588;28;21188;-71
2022/12/13 07:36:56;;;;;;;16.63;13.00;;;;;;;-11.35;100.00;96398.41;4980951;28;20715;-70
2022/12/13 07:39:25;;;;;;;13.30;11.90;;;;;;;-11.34;100.00;96396.69;4982860;28;20466;-72
2022/12/13 07:41:54;;;;;;;15.00;11.93;;;;;;;-11.30;100.00;96393.09;5020204;28;20537;-71
2022/12/13 07:44:22;;;;;;;13.07;11.20;;;;;;;-11.23;100.00;96388.50;5034444;28;20441;-69
2022/12/13 07:46:50;;;;;;;14.27;10.37;;;;;;;-11.25;100.00;96382.63;5010783;28;20488;-70
2022/12/13 07:49:18;;;;;;;14.23;12.10;;;;;;;-11.17;100.00;96393.38;5032000;28;20449;-71
2022/12/13 07:51:46;;;;;;;14.67;11.67;;;;;;;-11.22;100.00;96396.13;5031658;28;20454;-69
2022/12/13 07:54:14;;;;;;;12.83;11.50;;;;;;;-11.14;100.00;96390.66;5007068;28;20470;-69
2022/12/13 07:56:43;;;;;;;12.67;11.30;;;;;;;-11.12;100.00;96401.66;5018379;28;21325;-71
2022/12/13 07:59:12;;;;;;;11.50;10.37;;;;;;;-11.06;100.00;96403.94;5035674;28;20944;-68
2022/12/13 08:01:39;;;;;;;15.50;11.40;;;;;;;-11.06;100.00;96403.94;5029384;28;20462;-71
2022/12/13 08:04:07;;;;;;;26.10;17.63;;;;;;;-11.00;100.00;96400.25;5004721;28;20937;-68
2022/12/13 08:06:35;;;;;;;14.77;11.63;;;;;;;-10.88;100.00;96403.97;5027846;28;20489;-70
2022/12/13 08:09:04;;;;;;;13.87;12.23;;;;;;;-10.85;100.00;96403.84;5037746;28;20853;-71
2022/12/13 08:11:32;;;;;;;13.27;12.00;;;;;;;-10.79;100.00;96395.91;4994395;28;20520;-71
2022/12/13 08:14:01;;;;;;;13.43;12.13;;;;;;;-10.54;100.00;96402.41;5038001;28;20706;-71
2022/12/13 08:16:29;;;;;;;15.43;13.00;;;;;;;-10.22;100.00;96409.41;5028528;28;20833;-71
2022/12/13 08:18:57;;;;;;;15.13;13.17;;;;;;;-10.17;100.00;96408.28;5009803;28;20944;-70
2022/12/13 08:21:33;;;;;;;18.03;13.50;;;;;;;-10.24;100.00;96400.94;5028569;28;20475;-69
2022/12/13 08:24:21;;;;;;;15.47;12.50;;;;;;;-10.31;100.00;96397.88;5031260;28;20946;-69
2022/12/13 08:26:49;;;;;;;19.93;13.00;;;;;;;-10.21;100.00;96405.97;4986777;28;20490;-70
2022/12/13 08:29:18;;;;;;;18.93;14.50;;;;;;;-10.06;100.00;96396.66;5028515;28;20449;-69
2022/12/13 08:32:00;;;;;;;15.93;11.73;;;;;;;-10.00;100.00;96404.06;5032127;28;20441;-70
2022/12/13 08:34:28;;;;;;;13.90;11.10;;;;;;;-9.96;100.00;96400.44;5005454;28;20610;-67
2022/12/13 08:36:55;;;;;;;12.47;11.17;;;;;;;-9.88;100.00;96403.44;5029950;28;20485;-70
2022/12/13 08:39:29;;;;;;;10.87;9.80;;;;;;;-9.88;100.00;96408.56;5028240;28;20453;-69
2022/12/13 08:42:01;;;;;;;11.97;10.27;;;;;;;-9.91;100.00;96408.72;4985457;28;20474;-69
2022/12/13 08:44:45;;;;;;;15.20;11.93;;;;;;;-9.85;100.00;96406.75;5029645;28;20443;-70
2022/12/13 08:47:13;;;;;;;15.20;13.03;;;;;;;-9.77;100.00;96405.47;5030375;28;20482;-67
2022/12/13 08:49:50;;;;;;;16.30;11.77;;;;;;;-9.68;100.00;96404.16;5011191;28;20682;-69
2022/12/13 08:52:18;;;;;;;13.20;11.53;;;;;;;-9.75;100.00;96408.78;5031697;28;20465;-68
2022/12/13 08:54:45;;;;;;;13.13;11.83;;;;;;;-9.47;100.00;96419.38;5033811;28;20456;-70
2022/12/13 08:57:13;;;;;;;13.20;11.43;;;;;;;-9.31;100.00;96417.66;4987511;28;20470;-71
2022/12/13 08:59:41;;;;;;;14.77;10.87;;;;;;;-9.17;100.00;96414.38;5026287;28;20489;-69
2022/12/13 09:02:11;;;;;;;15.60;13.73;;;;;;;-9.05;100.00;96414.66;5029228;28;20744;-69
2022/12/13 09:04:39;;;;;;;12.67;10.53;;;;;;;-8.83;100.00;96424.59;5002493;28;20461;-69
2022/12/13 09:07:07;;;;;;;12.90;11.43;;;;;;;-8.67;100.00;96421.19;5032221;28;21092;-68
2022/12/13 09:09:35;;;;;;;13.57;12.27;;;;;;;-8.59;100.00;96419.84;5030252;28;20461;-70
2022/12/13 09:12:05;;;;;;;12.07;10.80;;;;;;;-8.54;100.00;96422.16;5030642;28;20510;-69
2022/12/13 09:14:37;;;;;;;12.33;10.53;;;;;;;-8.31;100.00;96433.72;5004366;28;21116;-71
2022/12/13 09:17:14;;;;;;;11.37;9.63;;;;;;;-8.22;100.00;96431.56;5032608;28;20686;-69
2022/12/13 09:19:51;;;;;;;12.63;11.20;;;;;;;-8.00;100.00;96426.84;5033705;28;20885;-70
2022/12/13 09:22:25;;;;;;;13.80;12.33;;;;;;;-7.78;100.00;96425.59;5005179;28;20560;-72
2022/12/13 09:25:00;;;;;;;15.50;12.40;;;;;;;-7.69;100.00;96421.69;5039124;28;21007;-69
2022/12/13 09:27:30;;;;;;;12.10;10.37;;;;;;;-7.63;100.00;96423.88;5037825;28;21167;-72
2022/12/13 09:30:07;;;;;;;11.40;10.23;;;;;;;-7.51;100.00;96421.50;4986703;28;20469;-71
2022/12/13 09:32:36;;;;;;;14.00;10.50;;;;;;;-7.50;100.00;96412.88;5023134;28;20472;-69
2022/12/13 09:35:05;;;;;;;13.27;9.73;;;;;;;-7.40;100.00;96411.38;5032342;28;20446;-69
2022/12/13 09:37:33;;;;;;;11.27;9.90;;;;;;;-7.27;100.00;96404.59;5010214;28;20484;-71
2022/12/13 09:40:00;;;;;;;13.10;10.73;;;;;;;-7.10;100.00;96391.63;5034674;28;20445;-70
2022/12/13 09:42:50;;;;;;;13.27;10.13;;;;;;;-7.11;100.00;96377.91;5036932;28;20429;-68
2022/12/13 09:45:40;;;;;;;13.93;10.23;;;;;;;-7.06;100.00;96381.03;5004111;28;20873;-69
2022/12/13 09:48:15;;;;;;;11.00;9.60;;;;;;;-7.01;100.00;96376.44;4977020;28;20663;-70
2022/12/13 09:50:49;;;;;;;10.63;9.50;;;;;;;-6.81;100.00;96371.78;5018294;28;21005;-70
2022/12/13 09:53:25;;;;;;;11.60;9.80;;;;;;;-6.77;100.00;96375.81;5037423;28;20464;-70
2022/12/13 09:56:00;;;;;;;10.30;8.63;;;;;;;-6.60;100.00;96371.38;5016615;28;20889;-70
2022/12/13 09:58:37;;;;;;;10.00;8.17;;;;;;;-6.53;100.00;96377.78;5031671;28;20453;-69
2022/12/13 10:01:06;;;;;;;9.70;8.50;;;;;;;-6.53;100.00;96372.63;5035154;28;20685;-71
2022/12/13 10:03:35;;;;;;;9.30;8.33;;;;;;;-6.36;100.00;96373.28;4990332;28;20445;-69
2022/12/13 10:06:12;;;;;;;8.90;8.07;;;;;;;-6.30;100.00;96367.72;5034916;28;20469;-67
2022/12/13 10:08:52;;;;;;;8.73;7.83;;;;;;;-6.15;100.00;96371.91;5036660;28;21235;-71
2022/12/13 10:11:24;;;;;;;8.43;7.60;;;;;;;-5.96;100.00;96362.91;5014849;28;20502;-70
2022/12/13 10:14:02;;;;;;;10.43;7.13;;;;;;;-5.77;100.00;96365.09;5040650;28;20471;-71
2022/12/13 10:16:39;;;;;;;8.00;7.23;;;;;;;-5.84;100.00;96361.28;5039382;28;20493;-71
2022/12/13 10:19:15;;;;;;;10.53;8.30;;;;;;;-5.79;100.00;96361.78;4997363;28;20446;-71
2022/12/13 10:21:56;;;;;;;9.20;7.60;;;;;;;-5.68;100.00;96355.91;5033168;28;20468;-70
2022/12/13 10:24:30;;;;;;;8.80;7.97;;;;;;;-5.68;100.00;96350.75;5037158;28;20430;-72
2022/12/13 10:27:11;;;;;;;8.03;7.23;;;;;;;-5.49;100.00;96347.75;5018234;28;20607;-70
2022/12/13 10:30:00;;;;;;;8.73;7.70;;;;;;;-5.36;100.00;96342.59;5033224;28;20462;-72
2022/12/13 10:32:28;;;;;;;9.37;8.40;;;;;;;-5.39;100.00;96335.84;5034703;28;20453;-69
2022/12/13 10:35:21;;;;;;;9.00;7.67;;;;;;;-5.41;100.00;96331.75;4994913;28;21040;-73
2022/12/13 10:37:49;;;;;;;8.43;7.63;;;;;;;-5.30;100.00;96341.34;5034453;28;20552;-69
2022/12/13 10:40:30;;;;;;;6.70;6.10;;;;;;;-5.32;100.00;96330.25;5034474;28;21011;-70
2022/12/13 10:43:08;;;;;;;6.80;6.27;;;;;;;-5.13;100.00;96332.41;5010531;28;20468;-70
2022/12/13 10:45:36;;;;;;;7.53;6.73;;;;;;;-5.06;100.00;96338.81;5037765;28;20453;-70
2022/12/13 10:48:04;;;;;;;8.87;7.97;;;;;;;-4.99;100.00;96337.44;5033508;28;20485;-72
2022/12/13 10:50:33;;;;;;;8.43;7.63;;;;;;;-4.82;100.00;96345.75;4991383;28;20457;-71
2022/12/13 10:53:01;;;;;;;11.20;8.50;;;;;;;-4.84;100.00;96343.28;5031625;28;20466;-71
2022/12/13 10:55:30;;;;;;;7.23;5.87;;;;;;;-4.68;100.00;96344.75;5039344;28;20448;-71
2022/12/13 10:58:00;;;;;;;7.50;6.80;;;;;;;-4.93;98.42;96336.16;5007244;28;20453;-70
2022/12/13 11:00:35;;;;;;;7.43;6.73;;;;;;;-5.04;97.05;96330.94;5033821;28;20465;-70
2022/12/13 11:03:03;;;;;;;7.03;6.33;;;;;;;-4.91;97.90;96325.72;5035935;28;20460;-71
2022/12/13 11:05:33;;;;;;;8.03;7.27;;;;;;;-4.69;99.63;96325.88;4992203;28;20460;-71
2022/12/13 11:08:15;;;;;;;7.70;6.77;;;;;;;-4.76;97.33;96321.22;5033395;28;20246;-73
2022/12/13 11:10:43;;;;;;;13.57;9.30;;;;;;;-4.82;96.23;96317.31;5033576;28;20434;-71
2022/12/13 11:13:23;;;;;;;10.83;9.30;;;;;;;-4.76;95.98;96327.22;5014241;28;20449;-71
2022/12/13 11:15:54;;;;;;;8.40;7.50;;;;;;;-4.62;95.79;96328.00;5023175;28;20883;-70
2022/12/13 11:18:23;;;;;;;7.57;6.87;;;;;;;-4.49;95.76;96325.34;5039161;28;20462;-70
2022/12/13 11:20:57;;;;;;;7.57;6.83;;;;;;;-4.62;93.19;96318.47;5002174;28;20783;-69
2022/12/13 11:23:27;;;;;;;9.00;6.53;;;;;;;-4.68;92.16;96316.34;5037234;28;20446;-71
2022/12/13 11:25:56;;;;;;;8.70;7.83;;;;;;;-4.69;92.33;96302.59;5038903;28;20446;-71
2022/12/13 11:28:37;;;;;;;7.60;6.80;;;;;;;-4.70;91.95;96311.28;5013979;28;20481;-72
2022/12/13 11:31:11;;;;;;;7.63;6.73;;;;;;;-4.78;91.92;96292.91;5034904;28;21194;-73